Terminal Aerodrome Forecast
Issued by NWS Shreveport, LA

Home | Current Version | Previous Version | Text Only | Print | Product List | Glossary On
Versions: 1 2 3 4 5 6 7 8 9 10 11 12 13 14 15 16 17 18 19 20 21 22
000
FTUS44 KSHV 192337
TAFELD
TAF
KELD 192337Z 2000/2024 16012G22KT P6SM BKN250
     FM200600 16010KT P6SM BKN025 OVC050
     FM200900 16009KT P6SM OVC015
     FM201500 17011KT P6SM BKN020 OVC030
     FM201800 18012G20KT P6SM BKN035 BKN050=

USA.gov is the U.S. government's official web portal to all federal, state and local government web resources and services.